Hawley Lake, Arizona
Current Conditions -  °F | °C
As of 9:35 AM on Sunday 25 Jan 2015 (Local Time) from KSOW Reporting Station
Clear Clear  
Wind Chill: 27°   Ceiling: Unl
Heat Index: 32°   Visibility: 10mi
Dew Point: 16°   Wind: 5mph
Humidity: 51%   Direction: 330°NNW
Pressure: 30.38"   Gusts: NA
Location:  33.9836°N, 109.746°W
Report Text: KSOW 251635Z AUTO 33004KT 10SM CLR 00/M09 A3038 RMK AO2
Loading
Personal Weather Stations






























Interactive Weather Map New forecast layout! Learn more

10-Day Weather Forecast

Advertisements
Track Severe Weather on mobile